GUARD ISLAND AK US NWS current weather conditions

sailwx.info

Wind from 270 at 9 knots gusting 12

Air temperature 14.0° C
Dewpoint 11.1° C

Last reported at 2020-Aug-12 06:12 UTC.
Time now 2020-Aug-12 06:33 UTC

Location: N 55°27' W 131°53'.
View on Google Maps.

See reports from other nearby stations

  
Tides and Currents Weather Stations Pressure Air Temp Water Temp Dewpoint Dewpoint Depression Visibility Wind Speed Wind Dir Waves Ship Positions
date/time (UTC)wind fromknots sea level pressurealtimeterstation pressurevisibilityair tempwater tempwave heightnotes
2020-Aug-12 06:12 270 9 gusting 12 14.0
2020-Aug-12 06:02 270 9 gusting 12 14.1
2020-Aug-12 05:52 270 9 gusting 12 14.1
2020-Aug-12 05:42 270 7 gusting 11 14.2
2020-Aug-12 05:32 280 6 gusting 11 14.1
2020-Aug-12 05:22 010 1 gusting 5 14.0
2020-Aug-12 05:12 010 1 gusting 6 14.0
2020-Aug-12 05:02 360 4 gusting 6 13.9
2020-Aug-12 04:52 360 4 gusting 8 14.2
2020-Aug-12 04:42 330 4 gusting 8 14.4
2020-Aug-12 04:32 300 4 gusting 7 14.5
2020-Aug-12 04:22 030 0 gusting 5 14.7
2020-Aug-12 04:12 14.8
2020-Aug-12 04:02 14.8
2020-Aug-12 03:52 160 0 gusting 1 14.7
2020-Aug-12 03:42 160 0 gusting 4 14.6
2020-Aug-12 03:32 190 0 gusting 2 14.5
2020-Aug-12 03:22 290 4 gusting 9 14.2
2020-Aug-12 03:12 350 6 gusting 11 14.4
2020-Aug-12 03:02 350 4 gusting 11 14.7
2020-Aug-12 02:52 250 2 gusting 7 14.9
2020-Aug-12 02:42 250 2 gusting 6 15.2
2020-Aug-12 02:32 250 5 gusting 6 15.3
2020-Aug-12 02:22 240 2 gusting 6 15.3
2020-Aug-12 02:12 260 6 gusting 7 15.2
2020-Aug-12 02:02 260 7 gusting 9 15.1
2020-Aug-12 01:52 260 8 gusting 11 15.2
2020-Aug-12 01:42 270 6 gusting 8 15.1
2020-Aug-12 01:32 270 6 gusting 8 15.1
2020-Aug-12 01:22 270 6 gusting 8 14.9
2020-Aug-12 01:12 270 7 gusting 9 15.0
2020-Aug-12 01:02 260 8 gusting 9 14.8
2020-Aug-12 00:52 260 9 gusting 11 14.8
2020-Aug-12 00:42 260 8 gusting 11 14.7
2020-Aug-12 00:32 270 8 gusting 11 14.6
2020-Aug-12 00:22 270 9 gusting 12 14.7
2020-Aug-12 00:12 270 11 gusting 13 14.8
2020-Aug-11 23:52 280 9 gusting 13 14.8
2020-Aug-11 23:42 280 8 gusting 13 14.9
2020-Aug-11 23:33 270 8 gusting 13 15.0
2020-Aug-11 23:22 260 7 gusting 11 14.9
2020-Aug-11 23:12 260 6 gusting 11 15.2
2020-Aug-11 23:02 230 1 gusting 5 15.6
2020-Aug-11 22:52 260 4 gusting 6 15.1
2020-Aug-11 22:42 250 4 gusting 6 15.7
2020-Aug-11 22:32 230 1 gusting 5 16.0
2020-Aug-11 22:22 230 1 gusting 4 15.6
2020-Aug-11 22:12 230 1 gusting 4 15.5
2020-Aug-11 22:02 230 1 gusting 5 15.9
2020-Aug-11 21:52 170 1 gusting 5 16.4
2020-Aug-11 21:43 170 1 gusting 4 16.3
2020-Aug-11 21:32 140 1 gusting 5 15.6
2020-Aug-11 21:22 140 1 gusting 5 15.9
2020-Aug-11 21:12 130 2 gusting 5 15.7
2020-Aug-11 21:03 170 1 gusting 4 15.9
2020-Aug-11 20:52 230 1 gusting 4 15.2
2020-Aug-11 20:42 260 2 gusting 5 14.2
2020-Aug-11 20:32 260 5 gusting 7 13.8
2020-Aug-11 20:22 260 5 gusting 7 13.8
2020-Aug-11 20:12 260 6 gusting 8 13.7
2020-Aug-11 20:02 270 6 gusting 8 13.6
2020-Aug-11 19:52 270 6 gusting 8 13.4
2020-Aug-11 19:42 270 6 gusting 8 13.3
2020-Aug-11 19:33 270 6 gusting 8 13.3
2020-Aug-11 19:22 270 6 gusting 8 13.2
2020-Aug-11 19:12 280 5 gusting 7 13.2
2020-Aug-11 19:02 270 6 gusting 8 13.0
2020-Aug-11 18:52 270 6 gusting 8 12.9
2020-Aug-11 18:42 270 6 gusting 8 12.8
2020-Aug-11 18:32 270 6 gusting 8 12.9
2020-Aug-11 18:22 280 5 gusting 8 13.0
2020-Aug-11 18:12 280 5 gusting 8 13.1
2020-Aug-11 18:02 280 5 gusting 8 13.0
2020-Aug-11 17:52 280 6 gusting 9 12.8
2020-Aug-11 17:42 280 6 gusting 8 12.7
2020-Aug-11 17:32 280 5 gusting 9 12.7
2020-Aug-11 17:22 280 5 gusting 9 12.6
2020-Aug-11 17:12 280 6 gusting 11 12.5
2020-Aug-11 17:02 280 6 gusting 11 12.6
2020-Aug-11 16:52 280 6 gusting 11 12.7
2020-Aug-11 16:42 280 5 gusting 8 12.6
2020-Aug-11 16:32 280 6 gusting 8 12.4
2020-Aug-11 16:22 280 6 gusting 9 12.4
2020-Aug-11 16:12 270 5 gusting 8 12.4
2020-Aug-11 16:02 280 4 gusting 6 12.4
2020-Aug-11 15:52 280 2 gusting 5 12.5
2020-Aug-11 15:42 290 1 gusting 4 12.6
2020-Aug-11 15:32 290 1 gusting 4 12.6
2020-Aug-11 15:22 280 1 gusting 6 12.6
2020-Aug-11 15:12 280 1 gusting 4 12.7
2020-Aug-11 15:02 290 1 gusting 2 12.7
2020-Aug-11 14:53 300 0 gusting 2 12.8
2020-Aug-11 14:42 280 1 gusting 4 12.7
2020-Aug-11 14:32 290 0 gusting 2 12.7
2020-Aug-11 14:22 320 0 gusting 2 12.7
2020-Aug-11 14:12 12.6
2020-Aug-11 14:02 300 1 gusting 2 12.6
2020-Aug-11 13:52 12.8
2020-Aug-11 13:42 12.7
2020-Aug-11 13:32 12.6
2020-Aug-11 13:22 360 1 gusting 5 12.6
2020-Aug-11 13:12 340 1 gusting 6 12.5
2020-Aug-11 13:02 290 2 gusting 5 12.5
2020-Aug-11 12:52 280 4 gusting 7 12.5
2020-Aug-11 12:42 290 2 gusting 6 12.5
2020-Aug-11 12:32 280 6 gusting 12 12.5
2020-Aug-11 12:22 280 6 gusting 13 12.5
2020-Aug-11 12:12 280 5 gusting 9 12.5
2020-Aug-11 12:02 290 2 gusting 5 12.5
2020-Aug-11 11:52 290 4 gusting 5 12.5
2020-Aug-11 11:42 280 5 gusting 9 12.5
2020-Aug-11 11:32 290 4 gusting 6 12.6
2020-Aug-11 11:22 290 4 gusting 6 12.6
2020-Aug-11 11:12 290 2 gusting 5 12.6
2020-Aug-11 11:02 280 5 gusting 7 12.6
2020-Aug-11 10:52 280 5 gusting 8 12.6
2020-Aug-11 10:42 280 6 gusting 12 12.7
2020-Aug-11 10:32 280 6 gusting 11 12.6
2020-Aug-11 10:22 270 7 gusting 9 12.6
2020-Aug-11 10:12 280 6 gusting 8 12.6
2020-Aug-11 10:02 280 6 gusting 9 12.6
2020-Aug-11 09:52 290 4 gusting 7 12.6
2020-Aug-11 09:42 290 5 gusting 9 12.7
2020-Aug-11 09:32 290 4 gusting 6 12.7
2020-Aug-11 09:22 290 2 gusting 5 12.8
2020-Aug-11 09:12 290 2 gusting 5 12.8
2020-Aug-11 09:02 290 2 gusting 4 12.8
2020-Aug-11 08:52 290 2 gusting 6 12.8
2020-Aug-11 08:42 290 1 gusting 2 12.9
2020-Aug-11 08:32 290 0 gusting 2 13.0
2020-Aug-11 08:22 280 1 gusting 4 13.0
2020-Aug-11 08:12 290 0 gusting 4 12.9
2020-Aug-11 08:02 290 1 gusting 2 12.9
2020-Aug-11 07:52 290 1 gusting 2 13.0
2020-Aug-11 07:42 290 1 gusting 4 13.0
2020-Aug-11 07:32 270 1 gusting 2 13.0
2020-Aug-11 07:22 270 1 gusting 4 13.0
2020-Aug-11 07:12 260 1 gusting 6 13.0
2020-Aug-11 07:02 180 0 gusting 4 13.0
2020-Aug-11 06:52 140 0 gusting 2 13.0
2020-Aug-11 06:42 140 0 gusting 2 13.1
2020-Aug-11 06:32 190 0 gusting 2 13.0
2020-Aug-11 06:22 180 0 gusting 4 13.0
2020-Aug-11 06:12 140 1 gusting 2 13.0
2020-Aug-11 06:02 140 1 gusting 4 13.0
2020-Aug-11 05:52 140 0 gusting 2 13.1
2020-Aug-11 05:42 160 0 gusting 2 13.1
2020-Aug-11 05:32 170 0 gusting 2 12.9
2020-Aug-11 05:22 180 0 gusting 2 12.8
2020-Aug-11 05:12 160 0 gusting 4 12.8
2020-Aug-11 05:02 140 1 gusting 4 12.8
2020-Aug-11 04:52 090 0 gusting 4 12.9
2020-Aug-11 04:42 100 0 gusting 5 13.0
2020-Aug-11 04:32 120 1 gusting 4 13.1
2020-Aug-11 04:22 220 0 gusting 5 13.1
2020-Aug-11 04:12 210 1 gusting 5 13.0
2020-Aug-11 04:02 210 2 gusting 6 13.1
2020-Aug-11 03:52 230 1 gusting 6 13.2
2020-Aug-11 03:42 210 1 gusting 6 13.3
2020-Aug-11 03:32 210 1 gusting 5 13.3
2020-Aug-11 03:22 250 1 gusting 4 13.4
2020-Aug-11 03:12 360 1 gusting 5 13.5
2020-Aug-11 03:02 280 1 gusting 5 13.5
2020-Aug-11 02:52 010 1 gusting 5 13.5
2020-Aug-11 02:42 320 1 gusting 4 13.5
2020-Aug-11 02:32 340 1 gusting 5 13.4
2020-Aug-11 02:22 330 1 gusting 6 13.3
2020-Aug-11 02:12 250 1 gusting 8 13.4
2020-Aug-11 02:02 240 1 gusting 7 13.4
2020-Aug-11 01:52 290 1 gusting 6 13.5
2020-Aug-11 01:42 310 1 gusting 6 13.5
2020-Aug-11 01:32 230 1 gusting 6 13.4
2020-Aug-11 01:22 040 1 gusting 4 13.4
2020-Aug-11 01:12 130 1 gusting 5 13.2
2020-Aug-11 01:02 210 1 gusting 6 13.1
2020-Aug-11 00:52 210 1 gusting 6 13.1
2020-Aug-11 00:42 210 4 gusting 8 13.3
2020-Aug-11 00:32 220 2 gusting 8 13.7
2020-Aug-11 00:22 310 2 gusting 6 13.8
2020-Aug-11 00:12 310 2 gusting 7 13.9
2020-Aug-10 23:52 320 2 gusting 6 13.9
2020-Aug-10 23:42 230 2 gusting 7 14.0
2020-Aug-10 23:32 230 2 gusting 6 14.0
2020-Aug-10 23:22 310 2 gusting 6 14.0
2020-Aug-10 23:12 290 2 gusting 6 14.0
2020-Aug-10 23:02 240 2 gusting 7 14.1
2020-Aug-10 22:53 250 1 gusting 6 14.2
2020-Aug-10 22:42 270 2 gusting 8 14.3
2020-Aug-10 22:32 290 2 gusting 7 14.3
2020-Aug-10 22:22 270 2 gusting 6 14.1
2020-Aug-10 22:12 280 2 gusting 7 14.0
2020-Aug-10 22:02 280 2 gusting 7 14.1
2020-Aug-10 21:52 070 2 gusting 7 14.2
2020-Aug-10 21:42 070 2 gusting 8 14.1
2020-Aug-10 21:32 310 2 gusting 6 13.8
2020-Aug-10 21:22 240 2 gusting 8 13.8
2020-Aug-10 21:13 190 1 gusting 7 14.0
2020-Aug-10 21:02 130 1 gusting 4 13.7
2020-Aug-10 20:52 220 1 gusting 6 13.3
2020-Aug-10 20:42 220 0 gusting 4 12.9
2020-Aug-10 20:32 230 1 gusting 5 12.6
2020-Aug-10 20:22 250 2 gusting 9 12.6
2020-Aug-10 20:12 250 2 gusting 7 12.9
2020-Aug-10 20:02 240 2 gusting 7 13.1
2020-Aug-10 19:52 220 1 gusting 9 13.3
2020-Aug-10 19:43 210 4 gusting 8 13.7
2020-Aug-10 19:32 210 2 gusting 8 13.7
2020-Aug-10 19:22 300 1 gusting 5 13.9
2020-Aug-10 19:12 220 1 gusting 6 13.9
2020-Aug-10 19:02 210 2 gusting 9 13.9
2020-Aug-10 18:52 210 2 gusting 6 14.0
2020-Aug-10 18:42 210 2 gusting 6 13.9
2020-Aug-10 18:32 210 2 gusting 6 13.8
2020-Aug-10 18:22 340 1 gusting 6 13.9
2020-Aug-10 18:12 320 2 gusting 6 13.8
2020-Aug-10 18:02 260 2 gusting 8 14.0
2020-Aug-10 17:52 210 2 gusting 8 14.0
2020-Aug-10 17:42 210 2 gusting 6 14.0
2020-Aug-10 17:32 210 2 gusting 7 14.1
2020-Aug-10 17:22 290 1 gusting 6 14.1
2020-Aug-10 17:12 300 1 gusting 6 14.0
2020-Aug-10 17:02 270 1 gusting 6 13.9
2020-Aug-10 16:52 210 2 gusting 8 13.9
2020-Aug-10 16:42 210 4 gusting 8 13.6
2020-Aug-10 16:33 210 5 gusting 12 13.5
2020-Aug-10 16:22 210 2 gusting 8 13.6
2020-Aug-10 16:12 260 1 gusting 7 13.6
2020-Aug-10 16:02 240 2 gusting 7 13.5
2020-Aug-10 15:52 290 1 gusting 6 13.6
2020-Aug-10 15:42 220 2 gusting 8 13.4
2020-Aug-10 15:32 210 4 gusting 9 13.4
2020-Aug-10 15:23 210 4 gusting 11 13.3
2020-Aug-10 15:12 050 2 gusting 6 13.4
2020-Aug-10 15:02 060 1 gusting 7 13.2
2020-Aug-10 14:52 220 2 gusting 7 13.2
2020-Aug-10 14:44 210 4 gusting 11 13.1
2020-Aug-10 14:43 210 4 gusting 11 13.1
2020-Aug-10 14:24 280 2 gusting 6 13.1
2020-Aug-10 14:23 280 2 gusting 6 13.1
2020-Aug-10 13:32 210 2 gusting 12 13.0
2020-Aug-10 13:22 210 1 gusting 6 12.9
2020-Aug-10 13:12 140 1 gusting 5 12.9
2020-Aug-10 13:02 130 2 gusting 8 13.0
2020-Aug-10 12:52 350 1 gusting 4 13.1
2020-Aug-10 12:42 290 1 gusting 4 13.0
2020-Aug-10 12:32 210 1 gusting 5 13.0
2020-Aug-10 12:22 320 1 gusting 6 12.9
2020-Aug-10 12:12 350 1 gusting 4 12.9
2020-Aug-10 12:02 340 1 gusting 5 12.9
2020-Aug-10 11:52 110 2 gusting 6 12.8
2020-Aug-10 11:42 080 2 gusting 6 12.8
2020-Aug-10 11:32 350 2 gusting 6 12.8
2020-Aug-10 11:22 360 2 gusting 6 12.9
2020-Aug-10 11:12 040 2 gusting 7 12.9
2020-Aug-10 11:02 060 2 gusting 6 13.0
2020-Aug-10 10:52 030 2 gusting 6 13.0
2020-Aug-10 10:42 350 2 gusting 11 13.1
2020-Aug-10 10:32 340 2 gusting 6 13.2
2020-Aug-10 10:22 350 2 gusting 7 13.4
2020-Aug-10 10:12 010 2 gusting 9 13.5
2020-Aug-10 10:02 010 2 gusting 9 13.5
2020-Aug-10 09:52 360 2 gusting 6 13.6
2020-Aug-10 09:42 360 1 gusting 6 13.5
2020-Aug-10 09:32 360 2 gusting 7 13.5
2020-Aug-10 09:22 320 2 gusting 7 13.5
2020-Aug-10 09:12 320 2 gusting 6 13.6
2020-Aug-10 09:02 300 2 gusting 11 13.6
2020-Aug-10 08:52 330 2 gusting 6 13.5
2020-Aug-10 08:42 340 2 gusting 9 13.6
2020-Aug-10 08:32 350 2 gusting 6 13.7
2020-Aug-10 08:22 330 2 gusting 6 13.8
2020-Aug-10 08:12 130 2 gusting 7 13.8
2020-Aug-10 08:02 120 2 gusting 9 13.7
2020-Aug-10 07:52 130 5 gusting 9 13.6
2020-Aug-10 07:42 040 2 gusting 8 13.5
2020-Aug-10 07:32 320 2 gusting 6 13.6
2020-Aug-10 07:22 320 2 gusting 8 13.5
2020-Aug-10 07:12 300 2 gusting 8 13.5
2020-Aug-10 07:02 300 4 gusting 8 13.6
2020-Aug-10 06:52 260 4 gusting 12 13.8
2020-Aug-10 06:42 210 4 gusting 13 13.8
2020-Aug-10 06:32 220 4 gusting 13 13.9
2020-Aug-10 06:22 230 4 gusting 13 14.1
2020-Aug-10 06:12 220 4 gusting 9 14.1
2020-Aug-10 06:02 290 4 gusting 13 13.9